createdAt,value
2022-11-25T00:01:34.595Z,101322.34
2022-11-25T00:04:03.179Z,101317.00
2022-11-25T00:06:33.425Z,101315.84
2022-11-25T00:09:03.293Z,101313.09
2022-11-25T00:11:31.742Z,101311.28
2022-11-25T00:13:59.797Z,101314.72
2022-11-25T00:16:29.392Z,101310.13
2022-11-25T00:18:58.814Z,101303.97
2022-11-25T00:21:28.844Z,101300.06
2022-11-25T00:23:58.323Z,101301.00
2022-11-25T00:26:27.464Z,101300.06
2022-11-25T00:28:57.847Z,101297.56
2022-11-25T00:31:28.921Z,101301.91
2022-11-25T00:33:59.749Z,101300.13
2022-11-25T00:36:31.008Z,101299.56
2022-11-25T00:39:00.707Z,101301.91
2022-11-25T00:41:47.113Z,101296.75
2022-11-25T00:44:35.193Z,101305.81
2022-11-25T00:47:05.271Z,101306.47
2022-11-25T00:49:33.820Z,101307.28
2022-11-25T00:52:02.308Z,101304.84
2022-11-25T00:54:30.343Z,101311.78
2022-11-25T00:56:58.959Z,101305.81
2022-11-25T00:59:28.914Z,101299.56
2022-11-25T01:01:57.125Z,101297.09
2022-11-25T01:04:27.227Z,101304.63
2022-11-25T01:06:57.020Z,101289.56
2022-11-25T01:09:25.208Z,101284.31
2022-11-25T01:11:53.636Z,101286.28
2022-11-25T01:14:23.155Z,101289.16
2022-11-25T01:16:51.589Z,101294.59
2022-11-25T01:19:20.707Z,101297.91
2022-11-25T01:21:50.217Z,101298.91
2022-11-25T01:24:19.452Z,101293.72
2022-11-25T01:26:47.480Z,101291.19
2022-11-25T01:29:17.732Z,101292.09
2022-11-25T01:31:49.472Z,101294.75
2022-11-25T01:34:19.907Z,101288.66
2022-11-25T01:36:49.342Z,101290.59
2022-11-25T01:39:19.421Z,101287.84
2022-11-25T01:41:48.510Z,101279.94
2022-11-25T01:44:18.178Z,101280.34
2022-11-25T01:47:06.563Z,101273.59
2022-11-25T01:49:40.893Z,101272.72
2022-11-25T01:52:16.470Z,101272.81
2022-11-25T01:54:50.869Z,101270.03
2022-11-25T01:57:26.182Z,101268.03
2022-11-25T01:59:58.770Z,101269.94
2022-11-25T02:02:27.220Z,101262.72
2022-11-25T02:04:55.127Z,101267.38
2022-11-25T02:07:32.289Z,101271.53
2022-11-25T02:10:03.007Z,101273.19
2022-11-25T02:12:32.203Z,101274.22
2022-11-25T02:15:00.574Z,101282.09
2022-11-25T02:17:28.685Z,101275.03
2022-11-25T02:20:03.044Z,101277.59
2022-11-25T02:22:43.186Z,101278.50
2022-11-25T02:25:16.684Z,101284.50
2022-11-25T02:27:47.590Z,101276.53
2022-11-25T02:30:15.973Z,101278.38
2022-11-25T02:32:47.502Z,101273.88
2022-11-25T02:35:37.970Z,101275.50
2022-11-25T02:38:10.212Z,101279.94
2022-11-25T02:40:45.541Z,101280.66
2022-11-25T02:43:13.745Z,101284.22
2022-11-25T02:46:03.576Z,101285.81
2022-11-25T02:49:06.916Z,101291.31
2022-11-25T02:51:24.555Z,101281.63
2022-11-25T02:53:53.120Z,101288.69
2022-11-25T02:56:26.329Z,101287.88
2022-11-25T02:58:54.489Z,101279.16
2022-11-25T03:01:23.167Z,101275.50
2022-11-25T03:03:51.164Z,101277.06
2022-11-25T03:06:19.439Z,101282.59
2022-11-25T03:08:47.389Z,101286.00
2022-11-25T03:11:15.812Z,101286.09
2022-11-25T03:13:45.303Z,101286.16
2022-11-25T03:16:13.306Z,101281.91
2022-11-25T03:18:41.255Z,101282.91
2022-11-25T03:21:09.289Z,101288.22
2022-11-25T03:23:37.144Z,101286.63
2022-11-25T03:26:07.231Z,101288.63
2022-11-25T03:28:35.218Z,101280.63
2022-11-25T03:31:04.517Z,101273.53
2022-11-25T03:33:32.408Z,101267.72
2022-11-25T03:36:00.278Z,101275.72
2022-11-25T03:38:28.332Z,101281.03
2022-11-25T03:40:56.200Z,101284.69
2022-11-25T03:43:24.098Z,101285.63
2022-11-25T03:45:52.143Z,101284.91
2022-11-25T03:48:21.653Z,101281.50
2022-11-25T03:50:49.827Z,101278.28
2022-11-25T03:53:17.780Z,101275.66
2022-11-25T03:55:48.446Z,101284.41
2022-11-25T03:58:16.542Z,101289.09
2022-11-25T04:00:44.411Z,101296.34
2022-11-25T04:03:12.283Z,101292.47
2022-11-25T04:05:42.602Z,101300.44
2022-11-25T04:08:10.713Z,101299.63
2022-11-25T04:10:38.698Z,101299.47
2022-11-25T04:13:05.680Z,101303.78
2022-11-25T04:15:33.585Z,101293.09
2022-11-25T04:18:01.562Z,101292.16
2022-11-25T04:20:29.590Z,101292.28
2022-11-25T04:22:58.878Z,101293.13
2022-11-25T04:25:26.927Z,101291.47
2022-11-25T04:27:54.977Z,101284.28
2022-11-25T04:30:22.859Z,101281.69
2022-11-25T04:32:50.871Z,101281.44
2022-11-25T04:35:18.999Z,101270.06
2022-11-25T04:37:47.093Z,101274.66
2022-11-25T04:40:16.882Z,101271.38
2022-11-25T04:42:44.957Z,101277.69
2022-11-25T04:45:22.907Z,101283.25
2022-11-25T04:47:51.667Z,101289.22
2022-11-25T04:50:22.830Z,101279.41
2022-11-25T04:52:51.170Z,101286.13
2022-11-25T04:55:21.077Z,101282.78
2022-11-25T04:57:49.049Z,101280.88
2022-11-25T05:00:16.760Z,101288.16
2022-11-25T05:02:44.932Z,101287.53
2022-11-25T05:05:14.035Z,101285.75
2022-11-25T05:07:42.539Z,101274.88
2022-11-25T05:10:10.940Z,101283.72
2022-11-25T05:12:40.462Z,101287.94
2022-11-25T05:15:10.117Z,101279.88
2022-11-25T05:17:38.984Z,101286.06
2022-11-25T05:20:08.676Z,101286.13
2022-11-25T05:22:37.137Z,101292.16
2022-11-25T05:25:06.868Z,101281.41
2022-11-25T05:27:35.017Z,101289.44
2022-11-25T05:30:04.949Z,101292.00
2022-11-25T05:32:33.056Z,101283.47
2022-11-25T05:35:00.999Z,101294.13
2022-11-25T05:37:29.092Z,101293.56
2022-11-25T05:39:57.227Z,101290.91
2022-11-25T05:42:25.221Z,101286.66
2022-11-25T05:44:53.484Z,101284.75
2022-11-25T05:47:22.807Z,101287.56
2022-11-25T05:49:50.814Z,101281.91
2022-11-25T05:52:19.014Z,101283.47
2022-11-25T05:54:46.914Z,101292.97
2022-11-25T05:57:14.872Z,101284.63
2022-11-25T05:59:43.396Z,101284.56
2022-11-25T06:02:11.559Z,101290.13
2022-11-25T06:04:41.187Z,101291.75
2022-11-25T06:07:09.460Z,101286.91
2022-11-25T06:09:37.453Z,101286.00
2022-11-25T06:12:05.718Z,101287.72
2022-11-25T06:14:34.144Z,101282.28
2022-11-25T06:17:02.284Z,101278.75
2022-11-25T06:19:30.269Z,101272.63
2022-11-25T06:21:59.594Z,101266.75
2022-11-25T06:24:27.518Z,101276.31
2022-11-25T06:26:55.386Z,101273.66
2022-11-25T06:29:23.358Z,101277.59
2022-11-25T06:31:51.430Z,101284.63
2022-11-25T06:34:19.336Z,101281.00
2022-11-25T06:36:47.321Z,101287.19
2022-11-25T06:39:16.600Z,101288.00
2022-11-25T06:41:44.518Z,101290.94
2022-11-25T06:44:12.515Z,101287.31
2022-11-25T06:46:40.541Z,101291.63
2022-11-25T06:49:08.433Z,101292.69
2022-11-25T06:51:36.495Z,101293.59
2022-11-25T06:54:04.442Z,101295.28
2022-11-25T06:56:33.707Z,101299.91
2022-11-25T06:59:01.552Z,101301.75
2022-11-25T07:01:30.684Z,101300.91
2022-11-25T07:04:01.525Z,101297.13
2022-11-25T07:06:29.489Z,101295.38
2022-11-25T07:08:58.214Z,101297.97
2022-11-25T07:11:29.194Z,101301.31
2022-11-25T07:14:00.948Z,101303.69
2022-11-25T07:16:29.734Z,101295.75
2022-11-25T07:18:57.853Z,101293.84
2022-11-25T07:21:26.587Z,101291.06
2022-11-25T07:23:55.023Z,101312.25
2022-11-25T07:26:24.821Z,101319.72
2022-11-25T07:28:55.980Z,101320.22
2022-11-25T07:31:31.505Z,101326.22
2022-11-25T07:34:02.567Z,101319.19
2022-11-25T07:36:32.124Z,101318.63
2022-11-25T07:39:01.598Z,101325.41
2022-11-25T07:41:31.015Z,101331.50
2022-11-25T07:44:00.888Z,101331.16
2022-11-25T07:46:32.259Z,101339.13
2022-11-25T07:49:03.684Z,101337.94
2022-11-25T07:51:34.150Z,101339.41
2022-11-25T07:54:03.914Z,101339.41
2022-11-25T07:56:32.504Z,101335.88
2022-11-25T07:59:00.573Z,101328.94
2022-11-25T08:01:28.907Z,101328.44
2022-11-25T08:03:58.273Z,101342.50
2022-11-25T08:06:28.285Z,101340.78
2022-11-25T08:08:58.452Z,101338.81
2022-11-25T08:11:27.718Z,101357.03
2022-11-25T08:13:55.951Z,101359.25
2022-11-25T08:16:26.406Z,101351.88
2022-11-25T08:18:55.497Z,101341.56
2022-11-25T08:21:25.467Z,101337.34
2022-11-25T08:23:53.525Z,101339.56
2022-11-25T08:26:24.399Z,101347.94
2022-11-25T08:28:52.465Z,101341.75
2022-11-25T08:31:23.011Z,101349.53
2022-11-25T08:33:52.339Z,101351.19
2022-11-25T08:36:21.500Z,101359.00
2022-11-25T08:38:52.836Z,101348.38
2022-11-25T08:41:23.676Z,101351.03
2022-11-25T08:43:51.913Z,101359.03
2022-11-25T08:46:22.603Z,101347.00
2022-11-25T08:48:50.929Z,101342.63
2022-11-25T08:51:21.790Z,101344.66
2022-11-25T08:53:52.314Z,101351.72
2022-11-25T08:56:25.983Z,101354.03
2022-11-25T08:58:55.126Z,101352.91
2022-11-25T09:01:25.104Z,101345.31
2022-11-25T09:03:55.699Z,101352.75
2022-11-25T09:06:24.382Z,101346.69
2022-11-25T09:08:56.626Z,101354.50
2022-11-25T09:11:24.838Z,101355.16
2022-11-25T09:13:52.803Z,101356.84
2022-11-25T09:16:23.337Z,101360.22
2022-11-25T09:18:55.810Z,101366.34
2022-11-25T09:21:25.460Z,101371.34
2022-11-25T09:23:55.796Z,101379.88
2022-11-25T09:26:25.731Z,101378.19
2022-11-25T09:28:53.993Z,101388.31
2022-11-25T09:31:22.697Z,101392.63
2022-11-25T09:33:51.129Z,101392.69
2022-11-25T09:36:20.367Z,101393.56
2022-11-25T09:38:48.571Z,101393.97
2022-11-25T09:41:52.240Z,101394.78
2022-11-25T09:44:53.134Z,101394.16
2022-11-25T09:47:31.872Z,101400.16
2022-11-25T09:50:12.067Z,101391.63
2022-11-25T09:52:51.473Z,101395.28
2022-11-25T09:55:22.007Z,101399.00
2022-11-25T09:58:02.902Z,101395.09
2022-11-25T10:00:39.126Z,101403.44
2022-11-25T10:03:15.508Z,101392.94
2022-11-25T10:05:48.361Z,101402.03
2022-11-25T10:08:20.845Z,101401.97
2022-11-25T10:10:51.114Z,101404.63
2022-11-25T10:13:26.220Z,101402.78
2022-11-25T10:16:00.300Z,101400.72
2022-11-25T10:18:34.689Z,101402.44
2022-11-25T10:21:02.755Z,101407.97
2022-11-25T10:23:35.812Z,101409.63
2022-11-25T10:26:13.920Z,101420.13
2022-11-25T10:28:52.272Z,101411.53
2022-11-25T10:31:22.138Z,101411.81
2022-11-25T10:33:53.192Z,101413.59
2022-11-25T10:36:24.255Z,101413.28
2022-11-25T10:38:58.485Z,101408.69
2022-11-25T10:41:30.961Z,101415.31
2022-11-25T10:44:00.505Z,101417.75
2022-11-25T10:46:56.980Z,101412.41
2022-11-25T10:49:30.803Z,101409.75
2022-11-25T10:51:59.003Z,101410.41
2022-11-25T10:54:28.392Z,101407.69
2022-11-25T10:56:58.545Z,101414.66
2022-11-25T10:59:32.019Z,101415.31
2022-11-25T11:02:20.396Z,101417.78
2022-11-25T11:04:55.615Z,101421.19
2022-11-25T11:07:25.103Z,101424.63
2022-11-25T11:09:53.887Z,101424.38
2022-11-25T11:12:24.931Z,101424.38
2022-11-25T11:14:56.108Z,101425.16
2022-11-25T11:17:36.348Z,101420.50
2022-11-25T11:20:17.773Z,101425.81
2022-11-25T11:22:55.449Z,101424.75
2022-11-25T11:25:35.033Z,101430.00
2022-11-25T11:28:05.807Z,101424.09
2022-11-25T11:30:36.423Z,101421.44
2022-11-25T11:33:08.535Z,101432.22
2022-11-25T11:35:58.440Z,101427.50
2022-11-25T11:38:34.105Z,101427.16
2022-11-25T11:41:15.035Z,101430.75
2022-11-25T11:43:58.540Z,101433.53
2022-11-25T11:46:42.751Z,101427.63
2022-11-25T11:49:33.769Z,101424.03
2022-11-25T11:52:10.666Z,101434.59
2022-11-25T11:54:45.767Z,101433.53
2022-11-25T11:57:22.993Z,101444.19
2022-11-25T11:59:53.954Z,101444.91
2022-11-25T12:02:41.685Z,101444.72
2022-11-25T12:05:17.016Z,101452.69
2022-11-25T12:07:53.216Z,101451.91
2022-11-25T12:10:27.165Z,101454.16
2022-11-25T12:13:05.911Z,101447.63
2022-11-25T12:15:43.464Z,101453.22
2022-11-25T12:18:21.090Z,101442.38
2022-11-25T12:20:56.758Z,101449.63
2022-11-25T12:23:36.138Z,101454.31
2022-11-25T12:26:09.420Z,101448.91
2022-11-25T12:28:41.554Z,101443.44
2022-11-25T12:31:18.380Z,101437.97
2022-11-25T12:33:57.774Z,101446.03
2022-11-25T12:36:32.606Z,101444.81
2022-11-25T12:39:04.092Z,101449.50
2022-11-25T12:41:41.690Z,101447.44
2022-11-25T12:44:15.981Z,101448.50
2022-11-25T12:46:47.713Z,101453.56
2022-11-25T12:49:21.070Z,101457.94
2022-11-25T12:52:12.397Z,101446.97
2022-11-25T12:55:04.165Z,101451.22
2022-11-25T12:58:10.809Z,101452.00
2022-11-25T13:01:01.963Z,101458.06
2022-11-25T13:04:14.013Z,101466.63
2022-11-25T13:07:08.784Z,101460.38
2022-11-25T13:10:25.586Z,101463.03
2022-11-25T13:13:17.755Z,101470.00
2022-11-25T13:15:48.415Z,101471.41
2022-11-25T13:18:20.869Z,101470.53
2022-11-25T13:20:51.042Z,101469.47
2022-11-25T13:23:30.401Z,101472.03
2022-11-25T13:26:37.158Z,101480.56
2022-11-25T13:30:02.298Z,101488.59
2022-11-25T13:32:42.480Z,101486.81
2022-11-25T13:35:49.339Z,101493.63
2022-11-25T13:38:59.186Z,101492.56
2022-11-25T13:41:41.514Z,101493.50
2022-11-25T13:44:20.061Z,101494.25
2022-11-25T13:46:51.513Z,101493.06
2022-11-25T13:49:34.831Z,101492.19
2022-11-25T13:52:05.558Z,101498.94
2022-11-25T13:54:40.617Z,101496.34
2022-11-25T13:57:27.597Z,101506.00
2022-11-25T13:59:59.188Z,101492.81
2022-11-25T14:02:38.247Z,101499.91
2022-11-25T14:05:26.097Z,101508.53
2022-11-25T14:08:08.324Z,101516.16
2022-11-25T14:10:46.271Z,101524.16
2022-11-25T14:13:35.795Z,101523.94
2022-11-25T14:16:21.916Z,101519.69
2022-11-25T14:22:08.713Z,101524.88
2022-11-25T14:24:39.828Z,101529.84
2022-11-25T14:27:16.974Z,101525.38
2022-11-25T14:29:48.042Z,101539.91
2022-11-25T14:32:21.362Z,101537.13
2022-11-25T14:34:54.114Z,101545.25
2022-11-25T14:37:28.699Z,101546.09
2022-11-25T14:39:59.850Z,101550.53
2022-11-25T14:42:34.446Z,101549.81
2022-11-25T14:45:03.261Z,101559.66
2022-11-25T14:47:37.592Z,101556.13
2022-11-25T14:53:02.249Z,101565.34
2022-11-25T14:55:32.412Z,101563.53
2022-11-25T14:58:01.796Z,101567.94
2022-11-25T15:00:30.007Z,101571.53
2022-11-25T15:03:00.933Z,101577.88
2022-11-25T15:05:34.070Z,101579.66
2022-11-25T15:08:05.534Z,101580.38
2022-11-25T15:10:42.365Z,101585.78
2022-11-25T15:13:26.088Z,101585.72
2022-11-25T15:15:55.993Z,101583.66
2022-11-25T15:18:26.311Z,101588.25
2022-11-25T15:20:58.966Z,101582.53
2022-11-25T15:23:32.021Z,101589.53
2022-11-25T15:26:01.302Z,101591.13
2022-11-25T15:28:36.783Z,101603.31
2022-11-25T15:31:10.614Z,101602.34
2022-11-25T15:33:39.658Z,101604.19
2022-11-25T15:36:08.082Z,101607.19
2022-11-25T15:38:39.256Z,101609.78
2022-11-25T15:41:14.998Z,101611.47
2022-11-25T15:43:47.499Z,101605.91
2022-11-25T15:46:16.302Z,101612.09
2022-11-25T15:48:46.930Z,101612.31
2022-11-25T15:51:25.870Z,101615.41
2022-11-25T15:53:56.628Z,101616.19
2022-11-25T15:56:27.407Z,101618.00
2022-11-25T15:59:01.525Z,101617.63
2022-11-25T16:01:30.943Z,101620.31
2022-11-25T16:04:25.581Z,101620.91
2022-11-25T16:06:55.262Z,101631.69
2022-11-25T16:09:25.540Z,101629.25
2022-11-25T16:11:53.644Z,101633.63
2022-11-25T16:14:27.991Z,101636.81
2022-11-25T16:17:02.614Z,101642.16
2022-11-25T16:19:37.983Z,101651.16
2022-11-25T16:22:06.861Z,101650.16
2022-11-25T16:24:50.765Z,101655.47
2022-11-25T16:27:24.664Z,101662.44
2022-11-25T16:29:56.947Z,101668.47
2022-11-25T16:32:27.110Z,101658.78
2022-11-25T16:34:58.431Z,101671.25
2022-11-25T16:37:26.381Z,101673.06
2022-11-25T16:39:54.327Z,101674.00
2022-11-25T16:42:23.577Z,101674.94
2022-11-25T16:44:53.432Z,101684.56
2022-11-25T16:47:24.325Z,101683.59
2022-11-25T16:49:53.103Z,101689.72
2022-11-25T16:52:20.993Z,101688.63
2022-11-25T16:54:49.116Z,101697.56
2022-11-25T16:57:21.882Z,101699.44
2022-11-25T16:59:55.911Z,101695.84
2022-11-25T17:02:28.410Z,101700.31
2022-11-25T17:04:58.192Z,101696.47
2022-11-25T17:07:34.423Z,101694.81
2022-11-25T17:10:15.623Z,101702.78
2022-11-25T17:12:53.991Z,101702.25
2022-11-25T17:15:30.237Z,101705.66
2022-11-25T17:18:00.539Z,101712.78
2022-11-25T17:20:28.740Z,101706.59
2022-11-25T17:22:57.362Z,101714.59
2022-11-25T17:25:33.673Z,101715.38
2022-11-25T17:28:05.225Z,101715.59
2022-11-25T17:30:33.602Z,101717.53
2022-11-25T17:33:05.863Z,101718.53
2022-11-25T17:35:34.055Z,101733.47
2022-11-25T17:38:02.719Z,101735.88
2022-11-25T17:40:31.008Z,101735.78
2022-11-25T17:42:59.011Z,101736.06
2022-11-25T17:45:27.146Z,101739.97
2022-11-25T17:47:55.251Z,101749.91
2022-11-25T17:50:26.951Z,101747.25
2022-11-25T17:52:55.709Z,101745.38
2022-11-25T17:55:24.774Z,101749.03
2022-11-25T17:57:53.398Z,101741.91
2022-11-25T18:00:23.671Z,101749.84
2022-11-25T18:02:52.442Z,101755.50
2022-11-25T18:05:22.794Z,101754.59
2022-11-25T18:07:52.667Z,101775.06
2022-11-25T18:10:23.876Z,101768.50
2022-11-25T18:12:54.367Z,101777.38
2022-11-25T18:15:25.160Z,101774.72
2022-11-25T18:18:03.461Z,101774.00
2022-11-25T18:20:33.166Z,101782.19
2022-11-25T18:23:02.771Z,101784.72
2022-11-25T18:25:33.066Z,101794.28
2022-11-25T18:28:02.246Z,101788.13
2022-11-25T18:30:33.579Z,101796.31
2022-11-25T18:33:01.962Z,101785.50
2022-11-25T18:35:36.164Z,101797.19
2022-11-25T18:38:06.937Z,101806.41
2022-11-25T18:40:37.187Z,101801.91
2022-11-25T18:43:06.474Z,101801.91
2022-11-25T18:45:38.109Z,101802.66
2022-11-25T18:48:14.762Z,101805.47
2022-11-25T18:51:11.422Z,101815.97
2022-11-25T18:53:43.548Z,101825.06
2022-11-25T18:56:33.410Z,101824.13
2022-11-25T18:59:15.216Z,101829.03
2022-11-25T19:01:59.997Z,101830.66
2022-11-25T19:04:28.692Z,101833.03
2022-11-25T19:06:56.750Z,101836.56
2022-11-25T19:09:26.207Z,101844.53
2022-11-25T19:11:55.550Z,101846.31
2022-11-25T19:14:30.406Z,101843.91
2022-11-25T19:17:02.460Z,101857.16
2022-11-25T19:19:31.052Z,101851.56
2022-11-25T19:22:01.501Z,101855.75
2022-11-25T19:24:30.959Z,101854.63
2022-11-25T19:26:59.218Z,101865.09
2022-11-25T19:29:38.805Z,101865.94
2022-11-25T19:32:18.392Z,101864.56
2022-11-25T19:34:49.563Z,101865.28
2022-11-25T19:37:20.581Z,101872.06
2022-11-25T19:39:50.978Z,101880.38
2022-11-25T19:42:19.304Z,101883.09
2022-11-25T19:44:48.041Z,101881.31
2022-11-25T19:47:21.037Z,101885.72
2022-11-25T19:49:50.998Z,101890.03
2022-11-25T19:52:22.227Z,101896.97
2022-11-25T19:54:52.398Z,101898.66
2022-11-25T19:57:23.232Z,101898.75
2022-11-25T19:59:54.745Z,101901.66
2022-11-25T20:02:25.376Z,101915.72
2022-11-25T20:04:56.405Z,101913.97
2022-11-25T20:07:25.045Z,101910.59
2022-11-25T20:09:56.533Z,101924.66
2022-11-25T20:12:29.337Z,101930.88
2022-11-25T20:14:58.001Z,101927.53
2022-11-25T20:17:29.078Z,101929.94
2022-11-25T20:20:00.142Z,101929.97
2022-11-25T20:22:32.760Z,101933.59
2022-11-25T20:25:05.458Z,101936.28
2022-11-25T20:27:34.345Z,101933.22
2022-11-25T20:30:02.182Z,101944.63
2022-11-25T20:32:34.073Z,101946.34
2022-11-25T20:35:02.277Z,101956.00
2022-11-25T20:37:40.526Z,101955.22
2022-11-25T20:40:18.770Z,101954.41
2022-11-25T20:42:47.121Z,101963.22
2022-11-25T20:45:16.494Z,101965.16
2022-11-25T20:47:44.901Z,101966.75
2022-11-25T20:50:14.887Z,101974.69
2022-11-25T20:52:43.756Z,101980.97
2022-11-25T20:55:19.276Z,101979.31
2022-11-25T20:57:47.932Z,101984.63
2022-11-25T21:00:19.188Z,101983.91
2022-11-25T21:02:47.630Z,101985.63
2022-11-25T21:05:19.574Z,101988.03
2022-11-25T21:07:48.777Z,101994.25
2022-11-25T21:10:27.505Z,102000.56
2022-11-25T21:12:56.880Z,101996.38
2022-11-25T21:15:27.700Z,101998.78
2022-11-25T21:17:57.607Z,101999.44
2022-11-25T21:20:25.802Z,102010.00
2022-11-25T21:22:57.985Z,102011.00
2022-11-25T21:25:27.499Z,102024.47
2022-11-25T21:27:55.766Z,102022.88
2022-11-25T21:30:25.894Z,102026.28
2022-11-25T21:32:58.225Z,102036.06
2022-11-25T21:35:31.748Z,102038.06
2022-11-25T21:38:00.158Z,102038.94
2022-11-25T21:40:38.324Z,102038.06
2022-11-25T21:43:18.417Z,102045.19
2022-11-25T21:45:50.484Z,102047.00
2022-11-25T21:48:21.488Z,102052.31
2022-11-25T21:50:49.952Z,102061.28
2022-11-25T21:53:18.240Z,102054.16
2022-11-25T21:55:48.463Z,102066.63
2022-11-25T21:58:18.844Z,102062.97
2022-11-25T22:00:51.004Z,102064.75
2022-11-25T22:03:21.409Z,102060.53
2022-11-25T22:05:50.202Z,102074.78
2022-11-25T22:08:18.698Z,102071.06
2022-11-25T22:10:56.391Z,102065.06
2022-11-25T22:13:30.613Z,102077.75
2022-11-25T22:16:00.357Z,102079.69
2022-11-25T22:18:34.792Z,102079.16
2022-11-25T22:21:03.917Z,102079.56
2022-11-25T22:23:33.883Z,102080.00
2022-11-25T22:26:05.723Z,102079.34
2022-11-25T22:28:33.776Z,102084.09
2022-11-25T22:31:06.235Z,102087.03
2022-11-25T22:33:36.518Z,102086.28
2022-11-25T22:36:05.220Z,102087.47
2022-11-25T22:38:33.423Z,102092.06
2022-11-25T22:41:07.356Z,102098.47
2022-11-25T22:43:40.241Z,102095.88
2022-11-25T22:46:08.247Z,102099.63
2022-11-25T22:48:38.377Z,102108.66
2022-11-25T22:51:10.141Z,102108.81
2022-11-25T22:53:39.168Z,102102.75
2022-11-25T22:56:17.432Z,102119.59
2022-11-25T22:58:45.857Z,102120.41
2022-11-25T23:01:15.468Z,102123.28
2022-11-25T23:03:45.747Z,102126.91
2022-11-25T23:06:14.656Z,102122.56
2022-11-25T23:08:42.585Z,102125.44
2022-11-25T23:11:19.178Z,102129.09
2022-11-25T23:13:48.706Z,102134.59
2022-11-25T23:16:17.595Z,102135.53
2022-11-25T23:18:47.662Z,102144.53
2022-11-25T23:21:18.897Z,102141.88
2022-11-25T23:23:47.088Z,102150.75
2022-11-25T23:26:16.831Z,102148.28
2022-11-25T23:28:44.771Z,102155.50
2022-11-25T23:31:14.674Z,102156.53
2022-11-25T23:33:46.292Z,102152.16
2022-11-25T23:36:16.685Z,102165.59
2022-11-25T23:38:50.902Z,102168.25
2022-11-25T23:41:22.169Z,102163.91
2022-11-25T23:43:50.753Z,102169.28
2022-11-25T23:46:22.311Z,102168.44
2022-11-25T23:48:55.994Z,102181.00
2022-11-25T23:51:25.058Z,102186.38
2022-11-25T23:53:53.586Z,102180.28
2022-11-25T23:56:23.297Z,102191.88
2022-11-25T23:58:51.612Z,102190.16
